Time;durP1;ratioP1;P1;durP2;ratioP2;P2;SDS_P1;SDS_P2;PMS_P1;PMS_P2;Temp;Humidity;BMP_temperature;BMP_pressure;BME280_temperature;BME280_humidity;BME280_pressure;Samples;Min_cycle;Max_cycle;Signal;HPM_P1;HPM_P2
2021/08/31 00:02:14;;;;;;;;;;;;;;;15.70;100.00;100470.63;5053283;28;19994;-76
2021/08/31 00:04:41;;;;;;;;;;;;;;;15.57;100.00;100468.81;5053513;28;19932;-76
2021/08/31 00:07:08;;;;;;;;;;;;;;;15.42;100.00;100473.03;5053164;28;19932;-76
2021/08/31 00:09:35;;;;;;;;;;;;;;;15.47;100.00;100470.53;5053330;28;19924;-76
2021/08/31 00:12:02;;;;;;;;;;;;;;;15.36;100.00;100464.22;5051676;28;19925;-76
2021/08/31 00:14:29;;;;;;;;;;;;;;;15.60;100.00;100471.53;5051972;28;20360;-76
2021/08/31 00:16:56;;;;;;;;;;;;;;;15.47;100.00;100466.91;5068500;28;19929;-76
2021/08/31 00:19:23;;;;;;;;;;;;;;;15.47;100.00;100467.72;5053054;28;20396;-76
2021/08/31 00:21:50;;;;;;;;;;;;;;;15.62;100.00;100460.66;5051869;28;20380;-76
2021/08/31 00:24:17;;;;;;;;;;;;;;;15.59;100.00;100455.88;5053094;28;20284;-76
2021/08/31 00:26:44;;;;;;;;;;;;;;;15.56;100.00;100462.34;5053228;28;19924;-76
2021/08/31 00:29:11;;;;;;;;;;;;;;;15.45;100.00;100461.69;5051587;28;19936;-76
2021/08/31 00:31:39;;;;;;;;;;;;;;;15.56;100.00;100456.72;5051907;28;19925;-76
2021/08/31 00:34:06;;;;;;;;;;;;;;;15.06;100.00;100463.38;5051560;28;19925;-76
2021/08/31 00:36:33;;;;;;;;;;;;;;;15.19;100.00;100465.22;5053110;28;19932;-76
2021/08/31 00:39:00;;;;;;;;;;;;;;;15.08;100.00;100460.97;5051726;28;20299;-76
2021/08/31 00:41:27;;;;;;;;;;;;;;;15.34;100.00;100458.19;5052946;28;20292;-76
2021/08/31 00:43:54;;;;;;;;;;;;;;;15.21;100.00;100462.00;5051518;28;19964;-76
2021/08/31 00:46:22;;;;;;;;;;;;;;;15.13;100.00;100469.72;5051807;28;19925;-76
2021/08/31 00:48:50;;;;;;;;;;;;;;;15.22;100.00;100464.38;5052705;28;19960;-76
2021/08/31 00:51:20;;;;;;;;;;;;;;;15.22;100.00;100458.75;5051715;28;19928;-76
2021/08/31 00:53:49;;;;;;;;;;;;;;;15.28;100.00;100468.31;5052740;28;19925;-77
2021/08/31 00:56:16;;;;;;;;;;;;;;;15.32;100.00;100460.66;5052698;28;19924;-76
2021/08/31 00:58:43;;;;;;;;;;;;;;;15.24;100.00;100461.94;5053308;28;20419;-76
2021/08/31 01:01:10;;;;;;;;;;;;;;;15.35;100.00;100468.25;5054998;28;20055;-76
2021/08/31 01:03:39;;;;;;;;;;;;;;;15.06;100.00;100467.00;5055826;28;19929;-77
2021/08/31 01:06:07;;;;;;;;;;;;;;;15.30;100.00;100474.34;5056113;28;19924;-76
2021/08/31 01:08:34;;;;;;;;;;;;;;;15.36;100.00;100472.66;5057924;28;20387;-76
2021/08/31 01:11:03;;;;;;;;;;;;;;;15.42;100.00;100468.19;5071696;28;20300;-77
2021/08/31 01:13:34;;;;;;;;;;;;;;;15.17;100.00;100464.88;5055884;28;20062;-76
2021/08/31 01:16:02;;;;;;;;;;;;;;;15.34;100.00;100466.63;5056499;28;19924;-76
2021/08/31 01:18:29;;;;;;;;;;;;;;;15.26;100.00;100469.97;5038219;28;20011;-76
2021/08/31 01:20:59;;;;;;;;;;;;;;;15.24;100.00;100470.41;5056232;28;20004;-76
2021/08/31 01:23:26;;;;;;;;;;;;;;;15.17;100.00;100473.31;5056045;28;19925;-76
2021/08/31 01:25:53;;;;;;;;;;;;;;;15.32;100.00;100474.72;5055970;28;19924;-76
2021/08/31 01:28:25;;;;;;;;;;;;;;;15.29;100.00;100472.75;5071831;28;20314;-77
2021/08/31 01:30:53;;;;;;;;;;;;;;;15.09;100.00;100477.44;5055937;28;19982;-76
2021/08/31 01:33:21;;;;;;;;;;;;;;;15.44;100.00;100482.66;5055676;28;19931;-76
2021/08/31 01:35:48;;;;;;;;;;;;;;;15.27;100.00;100472.38;5054570;28;20327;-77
2021/08/31 01:38:15;;;;;;;;;;;;;;;15.33;100.00;100470.69;5054621;28;19929;-76
2021/08/31 01:40:42;;;;;;;;;;;;;;;15.36;100.00;100475.47;5054652;28;19957;-76
2021/08/31 01:43:09;;;;;;;;;;;;;;;15.50;100.00;100472.50;5071271;28;19925;-76
2021/08/31 01:45:44;;;;;;;;;;;;;;;15.74;100.00;100462.91;5055608;28;19932;-76
2021/08/31 01:48:11;;;;;;;;;;;;;;;15.78;100.00;100460.81;5055571;28;19925;-77
2021/08/31 01:50:40;;;;;;;;;;;;;;;15.66;100.00;100464.22;5034852;28;19952;-76
2021/08/31 01:53:07;;;;;;;;;;;;;;;15.59;100.00;100467.16;5055086;28;19929;-76
2021/08/31 01:55:34;;;;;;;;;;;;;;;15.76;100.00;100463.28;5054326;28;19979;-76
2021/08/31 01:58:02;;;;;;;;;;;;;;;15.68;100.00;100470.22;5055397;28;19925;-76
2021/08/31 02:00:29;;;;;;;;;;;;;;;15.31;100.00;100459.03;5054088;28;19932;-76
2021/08/31 02:02:57;;;;;;;;;;;;;;;15.73;100.00;100466.13;5055196;28;20011;-76
2021/08/31 02:05:25;;;;;;;;;;;;;;;15.53;100.00;100471.66;5055229;28;19933;-76
2021/08/31 02:07:52;;;;;;;;;;;;;;;15.51;100.00;100473.31;5054326;28;19978;-75
2021/08/31 02:10:19;;;;;;;;;;;;;;;15.21;100.00;100479.69;5087115;28;19929;-75
2021/08/31 02:12:49;;;;;;;;;;;;;;;15.13;100.00;100483.03;5055118;28;19946;-75
2021/08/31 02:15:16;;;;;;;;;;;;;;;15.12;100.00;100485.03;5055079;28;19931;-75
2021/08/31 02:17:43;;;;;;;;;;;;;;;15.05;100.00;100490.75;5055037;28;19924;-76
2021/08/31 02:20:11;;;;;;;;;;;;;;;15.09;100.00;100488.69;5054953;28;19928;-76
2021/08/31 02:22:41;;;;;;;;;;;;;;;14.90;100.00;100503.38;5087354;28;19964;-75
2021/08/31 02:25:09;;;;;;;;;;;;;;;15.13;100.00;100494.28;5054974;28;19925;-76
2021/08/31 02:27:36;;;;;;;;;;;;;;;14.88;100.00;100500.19;5053790;28;19960;-76
2021/08/31 02:30:04;;;;;;;;;;;;;;;14.92;100.00;100500.94;5053451;28;19928;-76
2021/08/31 02:32:32;;;;;;;;;;;;;;;15.11;100.00;100503.16;5053490;28;20304;-76
2021/08/31 02:34:59;;;;;;;;;;;;;;;14.89;100.00;100498.19;5053612;28;19924;-75
2021/08/31 02:37:26;;;;;;;;;;;;;;;15.03;100.00;100500.81;5054740;28;19947;-76
2021/08/31 02:39:53;;;;;;;;;;;;;;;14.82;100.00;100498.22;5054539;28;19986;-76
2021/08/31 02:42:20;;;;;;;;;;;;;;;14.89;100.00;100501.78;5053439;28;19924;-76
2021/08/31 02:44:47;;;;;;;;;;;;;;;14.85;100.00;100500.22;5053084;28;19924;-76
2021/08/31 02:47:16;;;;;;;;;;;;;;;14.79;100.00;100485.00;5054572;28;20254;-76
2021/08/31 02:49:45;;;;;;;;;;;;;;;14.85;100.00;100492.56;5054510;28;19976;-76
2021/08/31 02:52:12;;;;;;;;;;;;;;;14.93;100.00;100482.84;5054357;28;19928;-76
2021/08/31 02:54:40;;;;;;;;;;;;;;;14.84;100.00;100493.81;5054159;28;20403;-76
2021/08/31 02:57:08;;;;;;;;;;;;;;;14.60;100.00;100486.38;5053151;28;19924;-76
2021/08/31 02:59:35;;;;;;;;;;;;;;;14.63;100.00;100488.38;5053033;28;19925;-75
2021/08/31 03:02:06;;;;;;;;;;;;;;;14.76;100.00;100486.66;5054215;28;19935;-76
2021/08/31 03:04:35;;;;;;;;;;;;;;;14.74;100.00;100489.06;5053111;28;20392;-76
2021/08/31 03:07:03;;;;;;;;;;;;;;;14.65;100.00;100491.56;5054147;28;20016;-75
2021/08/31 03:09:30;;;;;;;;;;;;;;;14.68;100.00;100493.56;5052762;28;20010;-75
2021/08/31 03:11:57;;;;;;;;;;;;;;;14.51;100.00;100491.69;5052687;28;19964;-76
2021/08/31 03:14:24;;;;;;;;;;;;;;;14.76;100.00;100497.91;5052745;28;19929;-75
2021/08/31 03:16:51;;;;;;;;;;;;;;;14.99;100.00;100495.25;5052699;28;19924;-76
2021/08/31 03:19:24;;;;;;;;;;;;;;;14.89;100.00;100492.56;5053961;28;19928;-76
2021/08/31 03:21:55;;;;;;;;;;;;;;;15.01;100.00;100492.78;5053157;28;19925;-75
2021/08/31 03:24:22;;;;;;;;;;;;;;;14.74;100.00;100483.44;5053847;28;19924;-76
2021/08/31 03:26:50;;;;;;;;;;;;;;;14.82;100.00;100479.34;5053978;28;19929;-76
2021/08/31 03:29:17;;;;;;;;;;;;;;;14.98;100.00;100479.56;5053536;28;19925;-75
2021/08/31 03:31:44;;;;;;;;;;;;;;;15.06;100.00;100481.09;5052584;28;20350;-75
2021/08/31 03:34:36;;;;;;;;;;;;;;;14.93;100.00;100480.03;5035891;28;19935;-75
2021/08/31 03:37:03;;;;;;;;;;;;;;;14.96;100.00;100476.38;5053617;28;20295;-76
2021/08/31 03:39:30;;;;;;;;;;;;;;;15.18;100.00;100469.28;5053780;28;19976;-75
2021/08/31 03:41:57;;;;;;;;;;;;;;;14.83;100.00;100469.69;5052552;28;19931;-76
2021/08/31 03:44:24;;;;;;;;;;;;;;;14.84;100.00;100473.31;5052180;28;20059;-76
2021/08/31 03:46:53;;;;;;;;;;;;;;;14.95;100.00;100466.31;5052315;28;19936;-76
2021/08/31 03:49:20;;;;;;;;;;;;;;;15.06;100.00;100471.81;5051982;28;19925;-76
2021/08/31 03:51:47;;;;;;;;;;;;;;;15.09;100.00;100466.16;5051954;28;20388;-75
2021/08/31 03:54:16;;;;;;;;;;;;;;;15.05;100.00;100479.50;5053361;28;19925;-75
2021/08/31 03:56:43;;;;;;;;;;;;;;;14.95;100.00;100477.59;5053323;28;19928;-75
2021/08/31 03:59:10;;;;;;;;;;;;;;;15.13;100.00;100483.81;5053014;28;19956;-76
2021/08/31 04:01:37;;;;;;;;;;;;;;;15.01;100.00;100481.53;5053321;28;19931;-75
2021/08/31 04:04:04;;;;;;;;;;;;;;;14.70;100.00;100477.06;5053383;28;20078;-75
2021/08/31 04:06:31;;;;;;;;;;;;;;;14.84;100.00;100482.56;5033462;28;20546;-76
2021/08/31 04:08:58;;;;;;;;;;;;;;;15.03;100.00;100479.09;5052069;28;19928;-76
2021/08/31 04:11:25;;;;;;;;;;;;;;;14.92;100.00;100475.59;5052917;28;19925;-76
2021/08/31 04:13:52;;;;;;;;;;;;;;;15.03;100.00;100467.03;5053109;28;20016;-76
2021/08/31 04:16:19;;;;;;;;;;;;;;;15.16;100.00;100477.31;5053332;28;19925;-76
2021/08/31 04:18:46;;;;;;;;;;;;;;;14.90;100.00;100480.88;5053111;28;19983;-76
2021/08/31 04:21:13;;;;;;;;;;;;;;;15.01;100.00;100487.16;5053200;28;20031;-76
2021/08/31 04:23:40;;;;;;;;;;;;;;;15.24;100.00;100476.03;5068657;28;20448;-75
2021/08/31 04:26:07;;;;;;;;;;;;;;;15.14;100.00;100479.78;5053032;28;20273;-76
2021/08/31 04:28:35;;;;;;;;;;;;;;;15.15;100.00;100487.00;5052981;28;19987;-76
2021/08/31 04:31:01;;;;;;;;;;;;;;;15.09;100.00;100488.69;5051924;28;19932;-75
2021/08/31 04:33:29;;;;;;;;;;;;;;;15.16;100.00;100491.41;5054011;28;19986;-76
2021/08/31 04:35:57;;;;;;;;;;;;;;;15.18;100.00;100491.78;5035705;28;20357;-76
2021/08/31 04:38:24;;;;;;;;;;;;;;;15.00;100.00;100485.56;5048353;28;19998;-76
2021/08/31 04:40:51;;;;;;;;;;;;;;;15.04;100.00;100491.94;5056676;28;19925;-76
2021/08/31 04:43:19;;;;;;;;;;;;;;;14.88;100.00;100486.13;5057043;28;19968;-75
2021/08/31 04:45:46;;;;;;;;;;;;;;;14.75;100.00;100496.31;5056938;28;19983;-75
2021/08/31 04:48:13;;;;;;;;;;;;;;;15.07;100.00;100502.38;5039314;28;19925;-75
2021/08/31 04:50:40;;;;;;;;;;;;;;;14.87;100.00;100497.78;5088904;28;19948;-76
2021/08/31 04:53:07;;;;;;;;;;;;;;;14.82;100.00;100501.84;5056673;28;19990;-75
2021/08/31 04:55:34;;;;;;;;;;;;;;;14.87;100.00;100504.22;5053782;28;20288;-75
2021/08/31 04:58:01;;;;;;;;;;;;;;;14.96;100.00;100512.97;5054492;28;20407;-76
2021/08/31 05:00:28;;;;;;;;;;;;;;;14.88;100.00;100505.81;5056633;28;19929;-77
2021/08/31 05:02:56;;;;;;;;;;;;;;;14.74;100.00;100511.56;5055665;28;19931;-81
2021/08/31 05:05:23;;;;;;;;;;;;;;;14.73;100.00;100515.63;5055399;28;20015;-77
2021/08/31 05:07:50;;;;;;;;;;;;;;;14.66;100.00;100512.84;5055034;28;20023;-77
2021/08/31 05:10:18;;;;;;;;;;;;;;;14.55;100.00;100514.19;5088745;28;19967;-79
2021/08/31 05:12:45;;;;;;;;;;;;;;;14.69;100.00;100511.25;5055139;28;19975;-78
2021/08/31 05:15:12;;;;;;;;;;;;;;;14.76;100.00;100526.03;5056250;28;20368;-78
2021/08/31 05:17:40;;;;;;;;;;;;;;;14.67;100.00;100517.28;5054978;28;19964;-78
2021/08/31 05:20:08;;;;;;;;;;;;;;;14.84;100.00;100523.94;5088340;28;20038;-78
2021/08/31 05:22:35;;;;;;;;;;;;;;;14.76;100.00;100514.78;5055419;28;19975;-78
2021/08/31 05:25:03;;;;;;;;;;;;;;;14.81;100.00;100517.16;5056015;28;19970;-78
2021/08/31 05:27:31;;;;;;;;;;;;;;;14.92;100.00;100515.00;5056456;28;19925;-78
2021/08/31 05:29:58;;;;;;;;;;;;;;;14.78;100.00;100512.38;5055025;28;19925;-78
2021/08/31 05:32:24;;;;;;;;;;;;;;;14.84;100.00;100524.75;5037038;28;19932;-78
2021/08/31 05:34:51;;;;;;;;;;;;;;;14.89;100.00;100524.28;5056029;28;20319;-78
2021/08/31 05:37:18;;;;;;;;;;;;;;;14.92;100.00;100534.72;5054950;28;19925;-78
2021/08/31 05:39:45;;;;;;;;;;;;;;;14.96;100.00;100535.50;5055844;28;19978;-78
2021/08/31 05:42:12;;;;;;;;;;;;;;;14.85;100.00;100534.78;5055836;28;19925;-78
2021/08/31 05:44:40;;;;;;;;;;;;;;;15.03;100.00;100535.41;5054425;28;20304;-78
2021/08/31 05:47:07;;;;;;;;;;;;;;;15.01;100.00;100537.06;5055800;28;19924;-78
2021/08/31 05:49:34;;;;;;;;;;;;;;;14.95;100.00;100545.13;5054703;28;19928;-78
2021/08/31 05:52:01;;;;;;;;;;;;;;;14.97;100.00;100542.72;5037688;28;20395;-78
2021/08/31 05:54:29;;;;;;;;;;;;;;;14.75;100.00;100546.97;5055636;28;20075;-78
2021/08/31 05:56:57;;;;;;;;;;;;;;;14.99;100.00;100550.72;5055746;28;19951;-78
2021/08/31 05:59:24;;;;;;;;;;;;;;;15.05;100.00;100546.25;5055421;28;20023;-78
2021/08/31 06:01:54;;;;;;;;;;;;;;;14.85;100.00;100557.31;5087680;28;20128;-78
2021/08/31 06:04:32;;;;;;;;;;;;;;;14.74;100.00;100550.97;5035873;28;20353;-78
2021/08/31 06:06:59;;;;;;;;;;;;;;;15.01;100.00;100551.91;5054413;28;20272;-78
2021/08/31 06:09:28;;;;;;;;;;;;;;;15.17;100.00;100556.97;5053982;28;19931;-78
2021/08/31 06:11:57;;;;;;;;;;;;;;;15.06;100.00;100561.91;5055584;28;19925;-78
2021/08/31 06:14:24;;;;;;;;;;;;;;;15.08;100.00;100560.28;5054190;28;19935;-78
2021/08/31 06:16:52;;;;;;;;;;;;;;;15.01;100.00;100557.53;5054024;28;19932;-78
2021/08/31 06:19:19;;;;;;;;;;;;;;;15.27;100.00;100556.84;5055316;28;19929;-78
2021/08/31 06:21:46;;;;;;;;;;;;;;;15.16;100.00;100556.16;5055240;28;20075;-77
2021/08/31 06:24:13;;;;;;;;;;;;;;;15.31;100.00;100551.19;5055224;28;19968;-78
2021/08/31 06:26:40;;;;;;;;;;;;;;;15.02;100.00;100550.72;5055052;28;19932;-78
2021/08/31 06:29:07;;;;;;;;;;;;;;;14.90;100.00;100548.41;5087618;28;20019;-79
2021/08/31 06:31:35;;;;;;;;;;;;;;;15.19;100.00;100551.72;5037503;28;19932;-80
2021/08/31 06:34:03;;;;;;;;;;;;;;;15.21;100.00;100561.34;5055100;28;20015;-78
2021/08/31 06:36:30;;;;;;;;;;;;;;;15.06;100.00;100556.28;5054997;28;19931;-78
2021/08/31 06:38:58;;;;;;;;;;;;;;;14.82;100.00;100566.59;5054903;28;20386;-78
2021/08/31 06:41:25;;;;;;;;;;;;;;;14.93;100.00;100564.47;5053749;28;19925;-79
2021/08/31 06:43:52;;;;;;;;;;;;;;;15.20;100.00;100568.22;5036892;28;19924;-78
2021/08/31 06:46:19;;;;;;;;;;;;;;;14.91;100.00;100569.72;5053547;28;19964;-78
2021/08/31 06:48:48;;;;;;;;;;;;;;;15.08;100.00;100577.19;5053675;28;19928;-78
2021/08/31 06:51:15;;;;;;;;;;;;;;;15.30;100.00;100575.72;5053534;28;19924;-79
2021/08/31 06:53:43;;;;;;;;;;;;;;;15.21;100.00;100575.44;5086658;28;19933;-78
2021/08/31 06:56:10;;;;;;;;;;;;;;;15.17;100.00;100574.69;5052377;28;20020;-78
2021/08/31 06:58:37;;;;;;;;;;;;;;;15.34;100.00;100581.31;5054658;28;19925;-78
2021/08/31 07:01:04;;;;;;;;;;;;;;;15.24;100.00;100579.41;5053421;28;19936;-78
2021/08/31 07:03:31;;;;;;;;;;;;;;;15.46;100.00;100576.00;5054634;28;20031;-79
2021/08/31 07:06:07;;;;;;;;;;;;;;;15.58;100.00;100583.09;5054261;28;20391;-79
2021/08/31 07:08:34;;;;;;;;;;;;;;;15.47;100.00;100574.75;5033388;28;19933;-79
2021/08/31 07:11:01;;;;;;;;;;;;;;;15.44;100.00;100578.41;5016865;28;19932;-78
2021/08/31 07:13:28;;;;;;;;;;;;;;;15.39;100.00;100581.69;5052967;28;19925;-79
2021/08/31 07:15:55;;;;;;;;;;;;;;;15.42;100.00;100586.47;5052929;28;20364;-79
2021/08/31 07:18:22;;;;;;;;;;;;;;;15.38;100.00;100590.56;5053344;28;20011;-77
2021/08/31 07:20:49;;;;;;;;;;;;;;;15.47;100.00;100594.47;5052482;28;19925;-79
2021/08/31 07:23:18;;;;;;;;;;;;;;;15.41;100.00;100584.09;5052329;28;20042;-79
2021/08/31 07:25:48;;;;;;;;;;;;;;;15.81;100.00;100580.38;5052989;28;19925;-78
2021/08/31 07:28:16;;;;;;;;;;;;;;;15.90;100.00;100583.47;5054457;28;19929;-81
2021/08/31 07:30:43;;;;;;;;;;;;;;;16.06;100.00;100587.28;5052803;28;19925;-79
2021/08/31 07:33:10;;;;;;;;;;;;;;;16.03;100.00;100588.13;5052492;28;19929;-79
2021/08/31 07:35:38;;;;;;;;;;;;;;;16.12;100.00;100584.75;5035325;28;19924;-79
2021/08/31 07:38:05;;;;;;;;;;;;;;;16.28;100.00;100587.75;5053374;28;19929;-79
2021/08/31 07:40:32;;;;;;;;;;;;;;;15.74;100.00;100586.91;5053532;28;19931;-79
2021/08/31 07:43:00;;;;;;;;;;;;;;;15.77;100.00;100586.06;5053754;28;20280;-79
2021/08/31 07:45:27;;;;;;;;;;;;;;;16.12;100.00;100596.84;5053208;28;20384;-79
2021/08/31 07:47:54;;;;;;;;;;;;;;;15.97;100.00;100594.66;5042955;28;19939;-80
2021/08/31 07:50:22;;;;;;;;;;;;;;;16.32;100.00;100593.34;5053216;28;19947;-79
2021/08/31 07:52:49;;;;;;;;;;;;;;;16.27;100.00;100598.25;5057209;28;20007;-79
2021/08/31 07:55:20;;;;;;;;;;;;;;;16.44;100.00;100598.41;5053084;28;19932;-79
2021/08/31 07:57:47;;;;;;;;;;;;;;;16.05;100.00;100599.75;5051930;28;19925;-79
2021/08/31 08:00:16;;;;;;;;;;;;;;;16.17;100.00;100596.38;5053612;28;20372;-79
2021/08/31 08:02:44;;;;;;;;;;;;;;;16.15;100.00;100600.84;5053579;28;20450;-85
2021/08/31 08:05:36;;;;;;;;;;;;;;;16.19;100.00;100605.19;5018683;28;19932;-84
2021/08/31 08:08:04;;;;;;;;;;;;;;;16.38;100.00;100606.53;5050358;28;20323;-84
2021/08/31 08:10:31;;;;;;;;;;;;;;;16.50;100.00;100603.16;5035587;28;20592;-85
2021/08/31 08:12:58;;;;;;;;;;;;;;;16.69;100.00;100607.31;5068415;28;20012;-83
2021/08/31 08:15:25;;;;;;;;;;;;;;;16.48;100.00;100607.66;5051794;28;19963;-84
2021/08/31 08:17:52;;;;;;;;;;;;;;;16.65;100.00;100607.34;5050766;28;19939;-83
2021/08/31 08:20:19;;;;;;;;;;;;;;;16.71;100.00;100610.47;5053241;28;19972;-84
2021/08/31 08:22:47;;;;;;;;;;;;;;;16.38;100.00;100608.56;5034064;28;19925;-84
2021/08/31 08:25:15;;;;;;;;;;;;;;;16.53;100.00;100615.59;5051723;28;19929;-83
2021/08/31 08:27:42;;;;;;;;;;;;;;;16.37;100.00;100619.06;5052815;28;20006;-84
2021/08/31 08:30:10;;;;;;;;;;;;;;;16.77;100.00;100617.22;5035539;28;19925;-83
2021/08/31 08:32:37;;;;;;;;;;;;;;;16.52;100.00;100619.66;5051492;28;20095;-84
2021/08/31 08:35:06;;;;;;;;;;;;;;;16.65;100.00;100618.63;5033371;28;20380;-83
2021/08/31 08:37:34;;;;;;;;;;;;;;;16.56;100.00;100617.56;5051561;28;19924;-83
2021/08/31 08:40:01;;;;;;;;;;;;;;;16.54;100.00;100615.19;5035161;28;20395;-88
2021/08/31 08:42:30;;;;;;;;;;;;;;;16.52;100.00;100628.13;5034315;28;19933;-88
2021/08/31 08:44:57;;;;;;;;;;;;;;;16.93;100.00;100618.19;5052510;28;20363;-91
2021/08/31 08:47:25;;;;;;;;;;;;;;;17.19;100.00;100622.16;5036294;28;19972;-93
2021/08/31 08:49:53;;;;;;;;;;;;;;;17.20;100.00;100623.75;5049451;28;19925;-89
2021/08/31 08:52:20;;;;;;;;;;;;;;;17.50;100.00;100623.59;5049037;28;19933;-90
2021/08/31 08:54:47;;;;;;;;;;;;;;;17.19;100.00;100624.97;5032502;28;19929;-90
2021/08/31 08:57:17;;;;;;;;;;;;;;;17.45;100.00;100618.44;5031235;28;20315;-93
2021/08/31 08:59:47;;;;;;;;;;;;;;;17.22;100.00;100618.47;5020240;28;19928;-81
2021/08/31 09:02:35;;;;;;;;;;;;;;;16.98;100.00;100614.06;5035474;28;19929;-81
2021/08/31 09:05:03;;;;;;;;;;;;;;;17.07;100.00;100615.09;5053023;28;19925;-80
2021/08/31 09:07:34;;;;;;;;;;;;;;;17.31;100.00;100615.88;5051833;28;19931;-78
2021/08/31 09:10:12;;;;;;;;;;;;;;;17.09;100.00;100614.66;5035002;28;20351;-78
2021/08/31 09:12:40;;;;;;;;;;;;;;;17.15;100.00;100607.28;5051236;28;19925;-78
2021/08/31 09:15:25;;;;;;;;;;;;;;;16.95;100.00;100609.28;5052495;28;19925;-79
2021/08/31 09:18:14;;;;;;;;;;;;;;;17.10;100.00;100616.28;5067328;28;20284;-78
2021/08/31 09:20:45;;;;;;;;;;;;;;;17.28;100.00;100622.41;5080570;28;19925;-79
2021/08/31 09:23:23;;;;;;;;;;;;;;;17.18;100.00;100621.34;5070836;28;19935;-78
2021/08/31 09:25:51;;;;;;;;;;;;;;;17.00;100.00;100622.88;5034203;28;19932;-78
2021/08/31 09:28:30;;;;;;;;;;;;;;;16.85;100.00;100627.19;5053832;28;19940;-78
2021/08/31 09:31:05;;;;;;;;;;;;;;;17.02;100.00;100635.38;5020775;28;19931;-78
2021/08/31 09:33:34;;;;;;;;;;;;;;;17.10;100.00;100639.66;5055522;28;19925;-79
2021/08/31 09:36:01;;;;;;;;;;;;;;;16.71;100.00;100642.31;5054756;28;19932;-78
2021/08/31 09:38:38;;;;;;;;;;;;;;;17.08;100.00;100630.81;5070213;28;19925;-78
2021/08/31 09:41:05;;;;;;;;;;;;;;;16.93;100.00;100632.31;5052543;28;20026;-78
2021/08/31 09:43:32;;;;;;;;;;;;;;;17.28;100.00;100639.34;5054664;28;19925;-78
2021/08/31 09:45:59;;;;;;;;;;;;;;;17.90;100.00;100640.13;5054799;28;19925;-79
2021/08/31 09:48:26;;;;;;;;;;;;;;;17.70;100.00;100636.53;5053519;28;19931;-78
2021/08/31 09:50:56;;;;;;;;;;;;;;;17.81;100.00;100633.50;5054479;28;20289;-79
2021/08/31 09:53:26;;;;;;;;;;;;;;;18.05;100.00;100637.03;5054759;28;19925;-78
2021/08/31 09:56:02;;;;;;;;;;;;;;;17.96;100.00;100634.78;5054392;28;19990;-79
2021/08/31 09:58:30;;;;;;;;;;;;;;;17.69;100.00;100631.31;5036897;28;19925;-79
2021/08/31 10:00:57;;;;;;;;;;;;;;;17.73;100.00;100649.00;5053204;28;19932;-78
2021/08/31 10:03:25;;;;;;;;;;;;;;;17.73;100.00;100643.34;5054539;28;19940;-78
2021/08/31 10:05:55;;;;;;;;;;;;;;;17.73;100.00;100637.69;5033507;28;20369;-78
2021/08/31 10:08:22;;;;;;;;;;;;;;;17.72;100.00;100638.94;5051987;28;20388;-78
2021/08/31 10:10:50;;;;;;;;;;;;;;;17.93;100.00;100639.25;5054518;28;19925;-78
2021/08/31 10:13:21;;;;;;;;;;;;;;;17.91;100.00;100638.13;5036430;28;19928;-78
2021/08/31 10:15:50;;;;;;;;;;;;;;;17.63;100.00;100639.47;5053090;28;19924;-78
2021/08/31 10:18:18;;;;;;;;;;;;;;;17.47;100.00;100645.06;5052802;28;19940;-78
2021/08/31 10:20:48;;;;;;;;;;;;;;;17.52;100.00;100644.53;5053246;28;20296;-79
2021/08/31 10:23:16;;;;;;;;;;;;;;;17.53;100.00;100642.53;5053980;28;19935;-78
2021/08/31 10:25:43;;;;;;;;;;;;;;;17.82;100.00;100637.91;5036285;28;19924;-78
2021/08/31 10:28:26;;;;;;;;;;;;;;;18.07;100.00;100641.00;5052846;28;19978;-78
2021/08/31 10:30:54;;;;;;;;;;;;;;;17.99;100.00;100637.53;5054199;28;19924;-78
2021/08/31 10:33:41;;;;;;;;;;;;;;;18.02;100.00;100643.53;5054002;28;19925;-78
2021/08/31 10:36:09;;;;;;;;;;;;;;;18.33;100.00;100631.53;5054044;28;19925;-78
2021/08/31 10:38:43;;;;;;;;;;;;;;;18.28;100.00;100642.59;5053701;28;20407;-78
2021/08/31 10:41:29;;;;;;;;;;;;;;;18.09;100.00;100643.38;5054218;28;19924;-78
2021/08/31 10:43:57;;;;;;;;;;;;;;;17.65;100.00;100630.56;5052361;28;19932;-78
2021/08/31 10:46:24;;;;;;;;;;;;;;;17.38;100.00;100638.34;5053635;28;19925;-78
2021/08/31 10:49:01;;;;;;;;;;;;;;;17.83;100.00;100633.84;5054079;28;19932;-95
2021/08/31 10:51:28;;;;;;;;;;;;;;;17.47;100.00;100647.09;5033540;28;19925;-91
2021/08/31 10:53:55;;;;;;;;;;;;;;;17.52;100.00;100638.09;5021559;28;20334;-94
2021/08/31 10:56:23;;;;;;;;;;;;;;;17.59;100.00;100646.44;5034457;28;19974;-81
2021/08/31 10:58:54;;;;;;;;;;;;;;;17.80;100.00;100640.34;5049007;28;20415;-80
2021/08/31 11:01:22;;;;;;;;;;;;;;;17.98;100.00;100644.41;5053760;28;19925;-79
2021/08/31 11:03:52;;;;;;;;;;;;;;;17.53;100.00;100645.34;5054666;28;20019;-80
2021/08/31 11:06:26;;;;;;;;;;;;;;;17.83;100.00;100648.78;5037187;28;20383;-80
2021/08/31 11:09:12;;;;;;;;;;;;;;;18.27;100.00;100650.25;5053386;28;19931;-80
2021/08/31 11:11:44;;;;;;;;;;;;;;;18.48;100.00;100649.03;5033727;28;19940;-79
2021/08/31 11:14:13;;;;;;;;;;;;;;;18.58;100.00;100643.13;5052102;28;19925;-80
2021/08/31 11:16:41;;;;;;;;;;;;;;;18.87;100.00;100643.22;5033576;28;20063;-79
2021/08/31 11:19:22;;;;;;;;;;;;;;;18.79;100.00;100648.28;5053543;28;20279;-79
2021/08/31 11:21:50;;;;;;;;;;;;;;;18.55;100.00;100657.34;5066047;28;19950;-78
2021/08/31 11:24:18;;;;;;;;;;;;;;;18.72;100.00;100654.09;5052497;28;19959;-79
2021/08/31 11:26:45;;;;;;;;;;;;;;;18.41;100.00;100649.97;5050923;28;20020;-79
2021/08/31 11:29:12;;;;;;;;;;;;;;;18.44;100.00;100654.75;5054236;28;19948;-79
2021/08/31 11:31:39;;;;;;;;;;;;;;;18.41;100.00;100655.66;5052565;28;20008;-79
2021/08/31 11:34:13;;;;;;;;;;;;;;;18.51;100.00;100648.94;5052807;28;19978;-79
2021/08/31 11:36:41;;;;;;;;;;;;;;;18.58;100.00;100645.16;5052571;28;20023;-79
2021/08/31 11:39:10;;;;;;;;;;;;;;;18.78;100.00;100649.50;5041707;28;19925;-79
2021/08/31 11:41:37;;;;;;;;;;;;;;;18.54;100.00;100652.94;5053552;28;20015;-79
2021/08/31 11:44:13;;;;;;;;;;;;;;;18.58;100.00;100645.94;5035864;28;19924;-79
2021/08/31 11:46:41;;;;;;;;;;;;;;;19.04;100.00;100645.59;5053981;28;19925;-79
2021/08/31 11:49:08;;;;;;;;;;;;;;;18.93;100.00;100653.56;5053778;28;19925;-79
2021/08/31 11:51:36;;;;;;;;;;;;;;;18.70;100.00;100653.75;5052233;28;19982;-79
2021/08/31 11:54:07;;;;;;;;;;;;;;;18.87;100.00;100660.22;5052113;28;19928;-79
2021/08/31 11:56:36;;;;;;;;;;;;;;;18.97;100.00;100647.81;5049962;28;19931;-79
2021/08/31 11:59:03;;;;;;;;;;;;;;;18.98;100.00;100655.88;5078601;28;20019;-79
2021/08/31 12:01:32;;;;;;;;;;;;;;;18.83;100.00;100659.50;5052121;28;19974;-79
2021/08/31 12:04:16;;;;;;;;;;;;;;;18.56;100.00;100661.75;5068911;28;19924;-79
2021/08/31 12:06:45;;;;;;;;;;;;;;;18.18;100.00;100667.03;5062719;28;20258;-79
2021/08/31 12:09:12;;;;;;;;;;;;;;;18.10;100.00;100676.13;5050131;28;20391;-82
2021/08/31 12:11:40;;;;;;;;;;;;;;;18.26;100.00;100676.97;5038469;28;19925;-82
2021/08/31 12:14:07;;;;;;;;;;;;;;;18.15;100.00;100673.56;5052363;28;20398;-82
2021/08/31 12:16:35;;;;;;;;;;;;;;;18.07;100.00;100674.16;5052308;28;19925;-82
2021/08/31 12:19:28;;;;;;;;;;;;;;;18.36;100.00;100678.75;5052738;28;19931;-82
2021/08/31 12:22:11;;;;;;;;;;;;;;;18.19;100.00;100677.09;5033726;28;20411;-82
2021/08/31 12:24:40;;;;;;;;;;;;;;;17.80;100.00;100682.78;5070848;28;20020;-82
2021/08/31 12:27:11;;;;;;;;;;;;;;;18.17;100.00;100679.59;5052354;28;19964;-82
2021/08/31 12:29:48;;;;;;;;;;;;;;;18.44;100.00;100677.41;5045758;28;19932;-83
2021/08/31 12:32:22;;;;;;;;;;;;;;;18.24;100.00;100673.78;5047989;28;19935;-83
2021/08/31 12:34:49;;;;;;;;;;;;;;;18.54;100.00;100681.25;5053477;28;19924;-82
2021/08/31 12:37:33;;;;;;;;;;;;;;;18.41;100.00;100683.13;5052567;28;19928;-82